KR-0410 weather

Tae-king Heliport
Busan, Busan Gwang'yeogsi, South Korea

Public forecast

Using degrees Celsius for public forecast. Weather courtesy of forecast.io.

METAR (pilot weather report)

Closest report is Gimhae International Airport, 6.9 nm (12.8 km) NNW. Retrieved 2019/08/21 15:23 UTC (1 minute ago):

RKPK 211523Z 18006KT 4800 TSRA BR FEW005 FEW018CB BKN015 OVC030 26/24 Q1008 RMK CIG015 OCNL LTG IC TS B20 SW

TAF (pilot weather forecast)

Closest forecast is Gimhae International Airport, 6.9 nm (12.8 km) NNW. Retrieved 2019/08/21 12:00 UTC (3 hours ago):

TAF RKPK 211100Z 2112/2218 18010KT 4800 -RA BR BKN015 BKN030 TN26/2121Z TX29/2206Z BECMG 2209/2210 9999 NSW SCT015 BKN030